LiveATC.Net - Listen to live air traffic control over the Internet!

ICAO: KGSP  IATA: GSP   Airport: Greenville Spartanburg International Airport
City: Greer   State/Province: South Carolina
Country: United States   Continent: North America
KGSP METAR Weather: KGSP 281453Z 35004KT 10SM CLR 22/14 A3027 RMK AO2 SLP241 T02220139 51014
KGSP Flight Activity (FlightAware)
KGSP Airport Info   (AirNav) (iFlightPlanner)
KGSP VFR Sectional Chart   (iFlightPlanner) 
KGSP IFR Low Chart   (iFlightPlanner) 
KGSP Approach
Feed Status: UP   Listeners: 0
Listen right in your browser - requires Flash (in browser, requires Flash)
Click here to listen with your own player (launches your MP3 player)
KGSP Approach Audio Archives
Greer Approach (East)119.400

Feed sponsored by: Extreme Media Productions


Unauthorized use prohibited. See Terms of Service

Find LiveATC Audio Streams

Airport/ARTCC Code

(e.g., 124.400, 128.75)
Site-wide search

Browse LiveATC Feeds
LiveATC Coverage Map
Top 50 LiveATC Feeds
Bad Weather Areas

Offer a LiveATC Feed
Press Inquiries

LiveATC on iPhone
LiveATC on Android

Windows Phone
Windows 8/10

LiveATC Mobile
(Mobile browser)

ATC Audio Archives
Interesting Recordings

LiveATC Forums

Home Page
Make a Donation
LiveATC Store

Terms of Use
Privacy Policy

Canadian Air Freqs


FAA Airport Status
Nat'l Airspace Status
Arrival Demand Charts

Server Software By: